Portada
METAR-TAF:

METAR-TAF

Aeroports :

Curaçao, Antilles Neerlandeses

latitud: 12-12N, longitud: 068-58W, altitud: 9 m

Observació

L'informe es va fer fa 54 minuts, a les 09:00 UTC
Vent 10 kt del Est/Sud-Est
Temperatura 28°C
Humitat 74%
Pressió 1013 hPa
Visibilitat 10 km o més
Escasses núvols a una alçada de 1800 ft

METAR: TNCC 200900Z 12010KT 9999 FEW018 28/23 Q1013 NOSIG

Hora: 05:54 (09:54 UTC)

Pronòstic

L'informe es va fer fa 4 hores i 54 minuts, a les 05:00 UTC
Pronòstic vàlid del 20 a les 06 UTC al 21 a les 06 UTC
Vent 15 kt del Est/Sud-Est
Visibilitat 10 km o més
Escasses núvols a una alçada de 1800 ft

TAF: TNCC 200500Z 2006/2106 11015KT 9999 FEW018

Observacions i pronòstics meteorològics de més de 4000 aeroports (METAR i TAF).

Les estacions disponibles són els punts grocs i vermells al mapa.

Posi el ratolí al punt desitjat per veure el nom de l'estació.

Feu clic per veure les observacions i els pronòstics meteorològics.

Per canviar el mapa: feu clic els botons verds amb una creu de color negre per apropar; al botó verd amb un guió per allunyar la imatge; o en les fletxes verdes per a mapes adjacents.


METAR-TAF: